Time;durP1;ratioP1;P1;durP2;ratioP2;P2;SDS_P1;SDS_P2;PMS_P1;PMS_P2;Temp;Humidity;BMP_temperature;BMP_pressure;BME280_temperature;BME280_humidity;BME280_pressure;Samples;Min_cycle;Max_cycle;Signal;HPM_P1;HPM_P2
2021/12/19 00:04:26;;;;;;;46.05;21.52;;;-0.40;97.70;;;;;;4978658;28;20046;-79
2021/12/19 00:09:37;;;;;;;37.27;17.80;;;-0.40;97.60;;;;;;4980268;28;20049;-79
2021/12/19 00:12:04;;;;;;;38.92;17.38;;;-0.40;97.30;;;;;;4983670;28;20026;-79
2021/12/19 00:14:30;;;;;;;35.20;16.35;;;-0.50;97.20;;;;;;4989849;28;20038;-78
2021/12/19 00:16:56;;;;;;;30.20;14.38;;;-0.50;97.20;;;;;;4988604;28;20046;-79
2021/12/19 00:19:22;;;;;;;25.90;13.63;;;-0.50;97.10;;;;;;4990412;28;20026;-79
2021/12/19 00:21:48;;;;;;;30.45;15.07;;;-0.50;96.90;;;;;;4983632;28;20035;-80
2021/12/19 00:24:14;;;;;;;30.13;14.93;;;-0.50;97.30;;;;;;4976917;28;20061;-79
2021/12/19 00:26:39;;;;;;;38.40;18.05;;;-0.50;97.40;;;;;;4976296;28;20509;-79
2021/12/19 00:29:07;;;;;;;37.55;18.30;;;-0.40;97.30;;;;;;4975871;28;20216;-80
2021/12/19 00:31:33;;;;;;;42.78;19.55;;;-0.40;97.20;;;;;;4975804;28;20062;-79
2021/12/19 00:34:00;;;;;;;41.95;20.65;;;-0.40;97.40;;;;;;4975513;28;20038;-79
2021/12/19 00:36:26;;;;;;;45.10;21.05;;;-0.40;97.10;;;;;;4976350;28;20027;-78
2021/12/19 00:38:52;;;;;;;37.08;17.83;;;-0.30;97.10;;;;;;4976052;28;20057;-79
2021/12/19 00:41:18;;;;;;;26.75;14.35;;;-0.20;97.00;;;;;;4995649;28;20053;-78
2021/12/19 00:43:47;;;;;;;21.02;11.55;;;0.40;97.00;;;;;;5037831;28;20013;-79
2021/12/19 00:46:15;;;;;;;27.05;12.40;;;-0.20;96.80;;;;;;5037597;28;20099;-79
2021/12/19 00:48:45;;;;;;;27.38;13.60;;;-0.30;97.10;;;;;;5037969;28;20048;-79
2021/12/19 00:51:15;;;;;;;27.98;13.27;;;-0.20;97.20;;;;;;5037698;28;20033;-80
2021/12/19 00:53:42;;;;;;;27.30;12.50;;;-0.30;97.20;;;;;;5041051;28;20053;-79
2021/12/19 00:56:08;;;;;;;24.17;13.45;;;-0.20;97.30;;;;;;5041673;28;20099;-79
2021/12/19 00:58:34;;;;;;;31.55;15.48;;;-0.20;97.10;;;;;;5041463;28;20409;-79
2021/12/19 01:01:00;;;;;;;32.40;15.75;;;-0.10;97.10;;;;;;5041317;28;20027;-78
2021/12/19 01:03:26;;;;;;;35.13;18.13;;;-0.10;97.20;;;;;;5040862;28;20013;-78
2021/12/19 01:05:53;;;;;;;39.70;18.70;;;0.00;97.20;;;;;;5041104;28;20025;-79
2021/12/19 01:08:19;;;;;;;38.58;18.75;;;-0.60;97.10;;;;;;5039539;28;20148;-79
2021/12/19 01:10:47;;;;;;;42.30;19.02;;;0.00;97.20;;;;;;5041075;28;20124;-79
2021/12/19 01:13:15;;;;;;;40.65;20.33;;;0.10;97.00;;;;;;5040913;28;20028;-79
2021/12/19 01:15:41;;;;;;;53.90;25.33;;;0.10;96.90;;;;;;5040803;28;20032;-79
2021/12/19 01:18:08;;;;;;;48.33;23.70;;;0.10;96.50;;;;;;5040821;28;20072;-80
2021/12/19 01:20:39;;;;;;;39.33;19.38;;;0.10;96.70;;;;;;5040544;28;20033;-79
2021/12/19 01:23:06;;;;;;;37.08;19.55;;;0.10;96.80;;;;;;5040700;28;20063;-79
2021/12/19 01:25:32;;;;;;;36.67;18.42;;;0.10;96.80;;;;;;5040423;28;20035;-79
2021/12/19 01:27:58;;;;;;;41.47;19.23;;;0.10;97.20;;;;;;5040868;28;20017;-79
2021/12/19 01:30:24;;;;;;;38.25;19.30;;;0.10;97.30;;;;;;5040380;28;20208;-79
2021/12/19 01:32:50;;;;;;;39.78;19.10;;;0.00;97.30;;;;;;5040288;28;20225;-79
2021/12/19 01:35:18;;;;;;;44.03;20.35;;;0.00;97.30;;;;;;5040378;28;20017;-79
2021/12/19 01:37:45;;;;;;;35.17;18.80;;;0.10;97.30;;;;;;5040636;28;20108;-78
2021/12/19 01:40:14;;;;;;;39.33;19.45;;;-0.20;97.20;;;;;;5039453;28;20333;-79
2021/12/19 01:42:41;;;;;;;41.95;20.63;;;0.10;97.20;;;;;;5040655;28;20070;-79
2021/12/19 01:45:12;;;;;;;43.03;21.40;;;0.10;97.20;;;;;;5039197;28;20051;-78
2021/12/19 01:47:38;;;;;;;46.28;23.30;;;0.10;97.20;;;;;;5040855;28;20029;-78
2021/12/19 01:50:08;;;;;;;50.72;23.92;;;0.10;97.20;;;;;;5040341;28;20025;-79
2021/12/19 01:52:34;;;;;;;58.83;30.00;;;0.10;97.10;;;;;;5038467;28;20760;-79
2021/12/19 01:55:00;;;;;;;56.28;28.60;;;0.10;97.30;;;;;;5040119;28;20048;-80
2021/12/19 01:57:26;;;;;;;51.28;25.98;;;0.10;97.30;;;;;;5040320;28;20531;-79
2021/12/19 01:59:55;;;;;;;52.80;24.55;;;0.00;97.30;;;;;;5040356;28;20033;-79
2021/12/19 02:02:21;;;;;;;56.33;25.48;;;-1.90;97.10;;;;;;5038129;28;20108;-79
2021/12/19 02:04:47;;;;;;;50.50;24.83;;;0.00;97.70;;;;;;5040257;28;20519;-80
2021/12/19 02:07:14;;;;;;;52.90;25.05;;;0.00;97.70;;;;;;5038280;28;20017;-78
2021/12/19 02:09:41;;;;;;;53.55;26.13;;;0.10;97.90;;;;;;5039854;28;20135;-78
2021/12/19 02:12:08;;;;;;;59.63;28.52;;;0.10;97.90;;;;;;5038144;28;20238;-79
2021/12/19 02:14:34;;;;;;;64.68;31.75;;;0.10;97.90;;;;;;5039827;28;20048;-79
2021/12/19 02:17:00;;;;;;;68.03;31.08;;;0.60;98.00;;;;;;5039787;28;20021;-79
2021/12/19 02:19:25;;;;;;;56.22;28.27;;;0.20;97.90;;;;;;5039678;28;20025;-79
2021/12/19 02:21:53;;;;;;;45.47;23.60;;;0.20;97.80;;;;;;5039934;28;20139;-79
2021/12/19 02:24:20;;;;;;;53.25;25.15;;;0.20;97.70;;;;;;5039903;28;20493;-79
2021/12/19 02:26:47;;;;;;;53.80;25.25;;;0.20;97.60;;;;;;5021804;28;20036;-79
2021/12/19 02:29:13;;;;;;;47.40;24.17;;;0.20;97.80;;;;;;5039445;28;20215;-79
2021/12/19 02:31:41;;;;;;;54.63;24.77;;;0.20;97.70;;;;;;5038320;28;20013;-79
2021/12/19 02:34:17;;;;;;;45.30;22.85;;;0.20;97.80;;;;;;5039208;28;20033;-79
2021/12/19 02:36:53;;;;;;;44.17;21.63;;;0.30;97.70;;;;;;5039635;28;20569;-79
2021/12/19 02:50:11;;;;;;;66.82;32.45;;;0.40;97.70;;;;;;5039805;28;20079;-79
2021/12/19 02:52:37;;;;;;;71.93;31.65;;;0.90;97.80;;;;;;5039592;28;20041;-79
2021/12/19 02:55:03;;;;;;;74.22;35.92;;;0.40;97.80;;;;;;5039212;28;20309;-79
2021/12/19 02:57:29;;;;;;;81.78;40.20;;;0.40;97.90;;;;;;5039280;28;20503;-79
2021/12/19 02:59:55;;;;;;;95.50;46.08;;;0.30;98.20;;;;;;5039004;28;20035;-79
2021/12/19 03:02:22;;;;;;;97.85;47.67;;;0.20;98.60;;;;;;5039008;28;20029;-79
2021/12/19 03:04:59;;;;;;;105.38;49.25;;;0.10;99.10;;;;;;5037758;28;20052;-79
2021/12/19 03:07:26;;;;;;;100.72;47.90;;;0.10;99.30;;;;;;5039490;28;20024;-79
2021/12/19 03:13:06;;;;;;;99.35;47.85;;;0.10;99.40;;;;;;5039866;28;20178;-80
2021/12/19 03:18:17;;;;;;;93.07;45.65;;;0.00;99.70;;;;;;5039714;28;20035;-79
2021/12/19 03:20:43;;;;;;;96.47;47.28;;;0.10;99.80;;;;;;5037872;28;20021;-79
2021/12/19 03:23:11;;;;;;;99.13;48.15;;;0.10;99.90;;;;;;5039136;28;20400;-79
2021/12/19 03:25:37;;;;;;;99.57;45.50;;;0.20;99.90;;;;;;5039476;28;20063;-79
2021/12/19 03:28:06;;;;;;;90.60;43.97;;;0.20;99.80;;;;;;5039883;28;20052;-79
2021/12/19 03:30:33;;;;;;;96.05;44.38;;;0.10;99.90;;;;;;5040497;28;20303;-79
2021/12/19 03:32:59;;;;;;;88.20;43.95;;;0.10;99.90;;;;;;5047446;28;20052;-79
2021/12/19 03:35:25;;;;;;;87.72;44.00;;;2.10;99.90;;;;;;5049255;28;20488;-79
2021/12/19 03:37:52;;;;;;;89.22;43.03;;;0.00;99.90;;;;;;5047916;28;20104;-79
2021/12/19 03:40:24;;;;;;;83.28;43.17;;;0.10;99.90;;;;;;5047238;28;20032;-79
2021/12/19 03:42:53;;;;;;;87.93;44.72;;;0.00;99.90;;;;;;5041415;28;20021;-79
2021/12/19 03:45:22;;;;;;;93.05;46.53;;;0.00;99.90;;;;;;5038913;28;20553;-80
2021/12/19 03:47:48;;;;;;;84.93;42.10;;;0.00;99.90;;;;;;5037300;28;20029;-79
2021/12/19 03:50:20;;;;;;;89.15;44.78;;;0.00;99.90;;;;;;5038964;28;20106;-79
2021/12/19 03:52:46;;;;;;;86.40;44.15;;;-0.10;99.90;;;;;;5038378;28;20037;-79
2021/12/19 03:55:13;;;;;;;89.00;42.92;;;-0.10;99.90;;;;;;5036793;28;20033;-79
2021/12/19 03:57:39;;;;;;;84.68;42.83;;;-0.10;99.90;;;;;;5038214;28;20213;-79
2021/12/19 04:00:10;;;;;;;91.93;44.47;;;0.80;99.90;;;;;;5038137;28;20515;-79
2021/12/19 04:02:35;;;;;;;82.30;42.08;;;-0.20;99.90;;;;;;5038375;28;20276;-79
2021/12/19 04:05:02;;;;;;;86.07;42.83;;;-0.10;99.90;;;;;;5038036;28;20104;-79
2021/12/19 04:07:29;;;;;;;87.55;43.25;;;-0.10;99.90;;;;;;5038100;28;20376;-79
2021/12/19 04:09:55;;;;;;;96.68;46.25;;;-0.10;99.90;;;;;;5036513;28;20411;-79
2021/12/19 04:12:27;;;;;;;85.65;42.10;;;-0.10;99.90;;;;;;5038285;28;20029;-78
2021/12/19 04:14:53;;;;;;;85.53;42.25;;;0.00;99.90;;;;;;5037693;28;20029;-79
2021/12/19 04:17:19;;;;;;;86.25;44.03;;;0.00;99.90;;;;;;5038247;28;20036;-79
2021/12/19 04:19:52;;;;;;;88.53;44.25;;;0.00;99.90;;;;;;5038229;28;20025;-79
2021/12/19 04:22:18;;;;;;;88.38;42.75;;;0.10;99.90;;;;;;5037970;28;20396;-79
2021/12/19 04:24:48;;;;;;;84.93;42.13;;;0.10;99.90;;;;;;5037853;28;20559;-79
2021/12/19 04:27:14;;;;;;;79.25;39.13;;;0.10;99.90;;;;;;5041156;28;20235;-79
2021/12/19 04:29:40;;;;;;;76.05;38.90;;;0.10;99.90;;;;;;5041890;28;20051;-79
2021/12/19 04:32:07;;;;;;;79.10;39.28;;;1.10;99.90;;;;;;5040395;28;20120;-79
2021/12/19 04:34:33;;;;;;;83.55;40.80;;;0.10;99.90;;;;;;5041981;28;20057;-79
2021/12/19 04:37:08;;;;;;;83.00;41.95;;;0.20;99.90;;;;;;5041850;28;20031;-79
2021/12/19 04:50:52;;;;;;;81.55;41.88;;;0.20;99.90;;;;;;5041360;28;20178;-79
2021/12/19 05:16:33;;;;;;;78.38;41.30;;;0.50;99.80;;;;;;4978649;28;20488;-79
2021/12/19 05:19:05;;;;;;;76.18;39.75;;;0.60;99.80;;;;;;4962566;28;20469;-79
2021/12/19 05:21:33;;;;;;;83.53;41.60;;;0.60;99.60;;;;;;4979027;28;20034;-80
2021/12/19 05:26:25;;;;;;;91.95;45.38;;;0.70;99.80;;;;;;4988980;28;20061;-79
2021/12/19 05:28:52;;;;;;;77.82;40.75;;;0.70;99.60;;;;;;5040946;28;20052;-79
2021/12/19 05:31:20;;;;;;;76.75;41.65;;;0.90;99.60;;;;;;5040738;28;20010;-80
2021/12/19 05:33:47;;;;;;;83.05;43.13;;;0.80;99.60;;;;;;5040633;28;20400;-79
2021/12/19 05:47:03;;;;;;;80.70;43.72;;;0.80;99.50;;;;;;5040822;28;20284;-79
2021/12/19 05:49:29;;;;;;;91.22;43.47;;;0.80;99.90;;;;;;5040614;28;20439;-79
2021/12/19 05:51:55;;;;;;;82.10;42.10;;;-0.30;99.50;;;;;;5040601;28;20064;-79
2021/12/19 05:54:21;;;;;;;90.78;44.63;;;0.80;99.70;;;;;;5039062;28;20056;-79
2021/12/19 05:56:48;;;;;;;88.25;43.10;;;0.80;99.60;;;;;;5039559;28;20191;-79
2021/12/19 05:59:14;;;;;;;82.85;41.97;;;0.80;99.50;;;;;;5040868;28;20021;-80
2021/12/19 06:01:42;;;;;;;86.75;41.05;;;0.80;99.50;;;;;;5040016;28;20283;-78
2021/12/19 06:04:11;;;;;;;82.97;41.22;;;0.80;99.60;;;;;;5039859;28;20447;-79
2021/12/19 06:06:36;;;;;;;87.20;40.17;;;0.80;99.50;;;;;;5040528;28;20467;-79
2021/12/19 06:09:03;;;;;;;75.28;38.35;;;0.80;99.30;;;;;;5040630;28;20021;-80
2021/12/19 06:11:28;;;;;;;73.90;37.50;;;0.90;98.90;;;;;;5040880;28;20013;-80
2021/12/19 06:13:54;;;;;;;68.68;36.33;;;0.90;99.20;;;;;;5041503;28;20041;-79
2021/12/19 06:16:22;;;;;;;71.82;37.25;;;0.90;99.00;;;;;;5041021;28;20259;-80
2021/12/19 06:18:48;;;;;;;70.57;36.03;;;0.90;99.00;;;;;;5040616;28;20025;-81
2021/12/19 06:21:14;;;;;;;63.17;33.75;;;0.90;98.90;;;;;;5040320;28;20018;-81
2021/12/19 06:23:39;;;;;;;73.70;36.63;;;1.00;98.80;;;;;;5040611;28;20024;-80
2021/12/19 06:26:10;;;;;;;72.90;36.70;;;0.90;98.60;;;;;;5041746;28;20075;-80
2021/12/19 06:28:36;;;;;;;76.05;36.25;;;1.00;98.70;;;;;;5041148;28;20021;-79
2021/12/19 06:31:07;;;;;;;69.10;34.55;;;0.90;98.80;;;;;;5042518;28;20025;-80
2021/12/19 06:33:33;;;;;;;67.45;34.38;;;1.00;98.70;;;;;;5041957;28;20040;-80
2021/12/19 06:35:59;;;;;;;74.13;36.03;;;1.00;98.70;;;;;;5042680;28;20606;-80
2021/12/19 06:38:27;;;;;;;66.40;33.97;;;1.00;98.90;;;;;;5043932;28;20032;-79
2021/12/19 06:40:55;;;;;;;71.43;37.10;;;1.00;98.80;;;;;;5042480;28;20043;-79
2021/12/19 06:43:21;;;;;;;75.47;35.75;;;1.10;98.70;;;;;;5043881;28;20116;-80
2021/12/19 06:45:50;;;;;;;74.63;36.55;;;1.10;98.70;;;;;;5041518;28;20400;-80
2021/12/19 06:48:18;;;;;;;71.15;34.17;;;1.10;98.50;;;;;;5041468;28;20396;-80
2021/12/19 06:50:44;;;;;;;74.63;36.83;;;1.10;98.40;;;;;;5040193;28;20613;-79
2021/12/19 06:53:09;;;;;;;75.20;36.40;;;1.10;98.20;;;;;;5044785;28;20041;-79
2021/12/19 06:55:37;;;;;;;75.72;37.03;;;-0.80;97.80;;;;;;5046757;28;20040;-79
2021/12/19 06:58:03;;;;;;;80.05;39.92;;;1.20;98.50;;;;;;5046980;28;20023;-81
2021/12/19 07:00:28;;;;;;;74.38;39.83;;;1.30;98.40;;;;;;5047904;28;20053;-79
2021/12/19 07:02:57;;;;;;;76.38;38.35;;;1.30;98.50;;;;;;5045573;28;20021;-80
2021/12/19 07:05:23;;;;;;;76.10;37.90;;;1.30;98.60;;;;;;5042501;28;20359;-80
2021/12/19 07:07:48;;;;;;;75.25;39.28;;;1.40;98.60;;;;;;5042554;28;20028;-80
2021/12/19 07:10:14;;;;;;;76.70;40.33;;;1.50;98.70;;;;;;5042811;28;20222;-79
2021/12/19 07:12:40;;;;;;;76.30;40.75;;;1.50;98.70;;;;;;5042316;28;20028;-80
2021/12/19 07:15:09;;;;;;;75.35;37.35;;;1.50;98.40;;;;;;5040068;28;20083;-80
2021/12/19 07:17:35;;;;;;;78.43;38.15;;;1.50;98.10;;;;;;5042213;28;20025;-81
2021/12/19 07:20:05;;;;;;;70.30;36.20;;;1.50;97.90;;;;;;5041701;28;20029;-79
2021/12/19 07:22:31;;;;;;;71.78;36.95;;;1.50;98.00;;;;;;5039853;28;20201;-78
2021/12/19 07:24:59;;;;;;;74.65;38.05;;;1.50;98.20;;;;;;5041326;28;20471;-80
2021/12/19 07:27:27;;;;;;;76.28;37.75;;;1.60;98.20;;;;;;5041896;28;20025;-80
2021/12/19 07:29:56;;;;;;;76.20;39.30;;;1.60;98.50;;;;;;5041988;28;20033;-80
2021/12/19 07:32:24;;;;;;;77.50;39.50;;;1.60;98.20;;;;;;5047255;28;20021;-80
2021/12/19 07:34:50;;;;;;;85.55;41.40;;;1.70;98.30;;;;;;5047080;28;20254;-80
2021/12/19 07:37:18;;;;;;;81.70;42.88;;;1.90;98.50;;;;;;5047758;28;20089;-80
2021/12/19 07:39:58;;;;;;;102.07;50.20;;;1.80;98.30;;;;;;5048333;28;20021;-78
2021/12/19 07:42:23;;;;;;;86.85;44.78;;;1.80;98.30;;;;;;5047343;28;20122;-80
2021/12/19 07:44:49;;;;;;;79.00;41.05;;;1.80;98.30;;;;;;5047938;28;20045;-79
2021/12/19 07:47:16;;;;;;;75.15;38.13;;;1.90;98.10;;;;;;5044849;28;20255;-80
2021/12/19 07:49:42;;;;;;;75.25;38.28;;;2.00;98.00;;;;;;5041887;28;20056;-80
2021/12/19 07:52:08;;;;;;;73.43;38.13;;;2.10;97.90;;;;;;5041270;28;20507;-79
2021/12/19 07:54:34;;;;;;;67.63;33.00;;;2.10;97.50;;;;;;5040716;28;20051;-78
2021/12/19 07:56:59;;;;;;;60.63;32.20;;;4.20;97.90;;;;;;5041223;28;20048;-80
2021/12/19 07:59:28;;;;;;;68.63;35.83;;;2.10;97.10;;;;;;5040399;28;20306;-79
2021/12/19 08:01:53;;;;;;;82.05;39.58;;;2.10;97.00;;;;;;5040704;28;20666;-80
2021/12/19 08:04:21;;;;;;;73.60;37.95;;;2.10;97.00;;;;;;5042021;28;20029;-80
2021/12/19 08:06:47;;;;;;;65.50;33.67;;;2.10;97.10;;;;;;5040211;28;20029;-79
2021/12/19 08:09:22;;;;;;;63.20;32.05;;;2.20;97.10;;;;;;5040433;28;20469;-80
2021/12/19 08:11:56;;;;;;;65.75;33.83;;;2.10;97.00;;;;;;5041458;28;20309;-80
2021/12/19 08:14:23;;;;;;;66.97;32.75;;;2.30;97.00;;;;;;5041218;28;20043;-80
2021/12/19 08:16:48;;;;;;;64.60;34.10;;;2.30;97.00;;;;;;5040129;28;20029;-80
2021/12/19 08:19:14;;;;;;;68.57;35.70;;;2.40;96.60;;;;;;5045725;28;20237;-80
2021/12/19 08:21:40;;;;;;;71.22;37.80;;;2.30;96.90;;;;;;5041690;28;20232;-80
2021/12/19 08:24:10;;;;;;;72.93;39.58;;;2.40;97.00;;;;;;5041137;28;20032;-78
2021/12/19 08:26:37;;;;;;;71.15;35.33;;;2.40;96.90;;;;;;5040641;28;20020;-80
2021/12/19 08:29:04;;;;;;;70.22;36.78;;;2.40;96.80;;;;;;5045706;28;20076;-79
2021/12/19 08:31:29;;;;;;;71.32;36.60;;;2.40;96.60;;;;;;5044585;28;20021;-79
2021/12/19 08:33:55;;;;;;;68.68;34.80;;;2.40;96.60;;;;;;5043692;28;20032;-80
2021/12/19 08:36:21;;;;;;;64.32;34.80;;;2.50;96.70;;;;;;5047042;28;20116;-79
2021/12/19 08:38:49;;;;;;;73.20;38.55;;;2.60;96.30;;;;;;5049309;28;20033;-77
2021/12/19 08:41:15;;;;;;;75.50;40.35;;;2.60;96.10;;;;;;5051328;28;20033;-78
2021/12/19 08:43:41;;;;;;;76.68;38.40;;;2.70;96.20;;;;;;5045532;28;20111;-80
2021/12/19 08:46:09;;;;;;;77.15;39.55;;;2.70;96.00;;;;;;5043537;28;20545;-78
2021/12/19 08:48:35;;;;;;;78.63;41.90;;;1.50;95.60;;;;;;5041758;28;20033;-80
2021/12/19 08:51:02;;;;;;;82.03;43.65;;;2.40;96.00;;;;;;5042783;28;20624;-79
2021/12/19 08:53:27;;;;;;;77.18;41.88;;;3.00;96.00;;;;;;5041410;28;20045;-78
2021/12/19 08:55:53;;;;;;;83.78;44.63;;;3.40;96.00;;;;;;5041265;28;20225;-77
2021/12/19 08:58:19;;;;;;;80.78;44.22;;;3.10;95.80;;;;;;5040136;28;20029;-78
2021/12/19 09:00:45;;;;;;;88.85;43.80;;;3.30;95.70;;;;;;5040733;28;20124;-77
2021/12/19 09:03:10;;;;;;;83.70;42.83;;;3.40;95.50;;;;;;5042420;28;20467;-80
2021/12/19 09:05:36;;;;;;;78.15;42.40;;;3.50;95.20;;;;;;5046477;28;20056;-79
2021/12/19 09:08:02;;;;;;;83.55;45.55;;;3.60;94.90;;;;;;5044556;28;20016;-77
2021/12/19 09:10:30;;;;;;;86.53;46.60;;;3.60;94.70;;;;;;5046034;28;20021;-77
2021/12/19 09:12:56;;;;;;;94.63;48.33;;;3.60;94.80;;;;;;5045664;28;20013;-78
2021/12/19 09:15:22;;;;;;;96.18;50.90;;;3.50;95.10;;;;;;5053425;28;20345;-77
2021/12/19 09:17:48;;;;;;;104.40;52.92;;;3.70;95.00;;;;;;5054192;28;20029;-76
2021/12/19 09:20:15;;;;;;;98.88;53.47;;;3.60;95.00;;;;;;5055034;28;20025;-78
2021/12/19 09:22:41;;;;;;;98.57;53.03;;;3.80;94.90;;;;;;5054256;28;20108;-77
2021/12/19 09:25:08;;;;;;;102.55;56.70;;;3.90;94.70;;;;;;5052369;28;20140;-78
2021/12/19 09:27:35;;;;;;;110.10;58.40;;;3.90;94.50;;;;;;5054439;28;20013;-79
2021/12/19 09:30:01;;;;;;;103.85;55.63;;;4.00;94.30;;;;;;5052240;28;20428;-80
2021/12/19 09:32:27;;;;;;;104.53;56.65;;;3.90;94.10;;;;;;5048553;28;20078;-80
2021/12/19 09:34:54;;;;;;;111.47;59.72;;;4.00;94.30;;;;;;5050868;28;20108;-79
2021/12/19 09:37:20;;;;;;;111.32;59.78;;;4.10;94.00;;;;;;5050662;28;20074;-80
2021/12/19 09:39:51;;;;;;;119.28;62.30;;;4.00;94.10;;;;;;5049774;28;20104;-77
2021/12/19 09:42:20;;;;;;;121.15;64.72;;;4.00;94.40;;;;;;5048914;28;20021;-80
2021/12/19 09:44:46;;;;;;;115.45;60.85;;;4.00;94.50;;;;;;5051024;28;20052;-77
2021/12/19 09:47:15;;;;;;;122.05;65.75;;;4.00;94.50;;;;;;5059335;28;20085;-82
2021/12/19 09:49:42;;;;;;;124.43;64.00;;;4.50;94.70;;;;;;5061877;28;20027;-77
2021/12/19 09:52:11;;;;;;;123.55;63.65;;;4.00;94.20;;;;;;5065661;28;20017;-81
2021/12/19 09:54:39;;;;;;;123.55;64.35;;;1.40;93.80;;;;;;5063151;28;20039;-80
2021/12/19 09:57:08;;;;;;;116.47;60.65;;;4.10;94.00;;;;;;5056401;28;20079;-80
2021/12/19 09:59:34;;;;;;;121.00;64.63;;;4.30;94.40;;;;;;5052490;28;20021;-80
2021/12/19 10:02:01;;;;;;;118.57;63.22;;;4.20;93.70;;;;;;5046407;28;20029;-80
2021/12/19 10:04:33;;;;;;;129.18;64.72;;;4.20;94.00;;;;;;5057306;28;20020;-77
2021/12/19 10:07:28;;;;;;;122.28;62.22;;;4.20;93.70;;;;;;5053414;28;20035;-77
2021/12/19 10:10:04;;;;;;;141.57;66.75;;;4.30;93.90;;;;;;5054322;28;20100;-76
2021/12/19 10:15:12;;;;;;;112.65;59.80;;;4.60;93.30;;;;;;5053831;28;20295;-78
2021/12/19 10:17:39;;;;;;;123.55;63.92;;;4.80;92.90;;;;;;5053195;28;20029;-78
2021/12/19 10:20:14;;;;;;;110.35;58.50;;;5.00;92.70;;;;;;5052182;28;20077;-79
2021/12/19 10:22:47;;;;;;;115.80;61.53;;;5.10;92.20;;;;;;5052745;28;20021;-78
2021/12/19 10:25:19;;;;;;;114.50;60.58;;;5.30;91.50;;;;;;5047083;28;20033;-76
2021/12/19 10:27:46;;;;;;;120.80;62.92;;;5.50;91.50;;;;;;5043907;28;20667;-79
2021/12/19 10:30:49;;;;;;;122.13;62.58;;;5.70;91.30;;;;;;5052837;28;20032;-81
2021/12/19 10:33:22;;;;;;;122.43;62.15;;;5.90;90.40;;;;;;4989479;28;20030;-77
2021/12/19 10:36:05;;;;;;;106.03;56.45;;;5.90;90.70;;;;;;4979933;28;20034;-77
2021/12/19 10:38:35;;;;;;;101.38;55.38;;;6.10;90.30;;;;;;4979125;28;20033;-76
2021/12/19 10:41:02;;;;;;;100.07;55.08;;;6.30;88.50;;;;;;4979272;28;20030;-74
2021/12/19 10:43:33;;;;;;;105.53;56.25;;;6.40;88.60;;;;;;4962015;28;20114;-75
2021/12/19 10:46:02;;;;;;;99.28;53.30;;;6.40;88.40;;;;;;4977613;28;20081;-76
2021/12/19 10:48:42;;;;;;;93.65;50.55;;;6.30;88.40;;;;;;4978276;28;20578;-76
2021/12/19 10:51:16;;;;;;;96.90;53.55;;;6.50;88.20;;;;;;4977954;28;20034;-77
2021/12/19 10:53:42;;;;;;;104.18;58.45;;;6.40;87.90;;;;;;4977004;28;20043;-77
2021/12/19 10:56:20;;;;;;;109.88;60.88;;;6.30;88.60;;;;;;4976893;28;20057;-75
2021/12/19 10:58:54;;;;;;;136.38;73.18;;;6.40;88.00;;;;;;4980861;28;20045;-80
2021/12/19 11:01:44;;;;;;;128.57;71.18;;;6.50;88.60;;;;;;4983316;28;20042;-78
2021/12/19 11:04:23;;;;;;;135.05;72.95;;;6.50;87.70;;;;;;4966593;28;20022;-80
2021/12/19 11:07:02;;;;;;;133.80;73.25;;;6.50;88.70;;;;;;5003890;28;20029;-78
2021/12/19 11:09:37;;;;;;;155.70;81.22;;;6.50;89.30;;;;;;5047669;28;20017;-81
2021/12/19 11:12:07;;;;;;;139.38;77.10;;;6.50;88.30;;;;;;5046772;28;20028;-79
2021/12/19 11:14:43;;;;;;;139.23;75.28;;;6.70;88.10;;;;;;5046691;28;20687;-79
2021/12/19 11:17:22;;;;;;;125.10;66.97;;;10.30;88.80;;;;;;5047505;28;20032;-80
2021/12/19 11:19:53;;;;;;;121.82;62.88;;;6.50;86.50;;;;;;5047051;28;20021;-80
2021/12/19 11:22:25;;;;;;;108.07;59.17;;;6.30;86.70;;;;;;5047608;28;20024;-79
2021/12/19 11:24:57;;;;;;;111.85;59.10;;;6.10;87.90;;;;;;5042072;28;20028;-80
2021/12/19 11:27:23;;;;;;;105.50;57.58;;;6.20;88.10;;;;;;5050390;28;20071;-79
2021/12/19 11:29:54;;;;;;;105.25;55.20;;;6.40;88.60;;;;;;5050587;28;20108;-78
2021/12/19 11:32:36;;;;;;;109.63;58.53;;;6.60;88.30;;;;;;5047729;28;20021;-80
2021/12/19 11:35:29;;;;;;;106.43;56.83;;;6.80;85.60;;;;;;5052890;28;20029;-79
2021/12/19 11:38:02;;;;;;;116.03;61.40;;;7.50;87.50;;;;;;5050557;28;20693;-80
2021/12/19 11:40:32;;;;;;;124.80;64.38;;;6.80;85.90;;;;;;5049113;28;20017;-79
2021/12/19 11:43:08;;;;;;;108.97;59.05;;;6.80;85.80;;;;;;5057167;28;20017;-83
2021/12/19 11:45:39;;;;;;;110.63;59.25;;;6.80;85.80;;;;;;5033722;28;20688;-82
2021/12/19 11:48:16;;;;;;;112.60;57.78;;;7.20;87.40;;;;;;5046288;28;20075;-80
2021/12/19 11:51:03;;;;;;;118.13;64.25;;;7.40;87.80;;;;;;5046414;28;20458;-81
2021/12/19 11:53:37;;;;;;;;;;;7.50;86.80;;;;;;5047866;28;20068;-81
2021/12/19 11:56:11;;;;;;;126.00;67.00;;;7.70;85.10;;;;;;5050020;28;19921;-81
2021/12/19 11:58:42;;;;;;;158.00;73.80;;;7.80;84.80;;;;;;5047600;28;20040;-81
2021/12/19 12:01:12;;;;;;;140.10;70.05;;;8.00;84.60;;;;;;5046611;28;20198;-80
2021/12/19 12:04:10;;;;;;;125.68;68.20;;;8.10;84.50;;;;;;5045690;28;20035;-80
2021/12/19 12:06:52;;;;;;;125.32;66.38;;;8.30;82.00;;;;;;4981104;28;20027;-81
2021/12/19 12:09:23;;;;;;;121.35;63.50;;;8.30;81.40;;;;;;4981422;28;20030;-81
2021/12/19 12:12:04;;;;;;;113.25;61.90;;;8.30;80.50;;;;;;4980909;28;20497;-82
2021/12/19 12:14:34;;;;;;;118.15;64.65;;;8.40;81.90;;;;;;4981304;28;20034;-81
2021/12/19 12:17:05;;;;;;;129.88;71.07;;;8.50;80.70;;;;;;4984346;28;20292;-81
2021/12/19 12:19:52;;;;;;;129.65;70.20;;;8.60;81.10;;;;;;4985327;28;20417;-81
2021/12/19 12:22:32;;;;;;;132.32;70.40;;;8.60;79.70;;;;;;4984567;28;20251;-81
2021/12/19 12:25:10;;;;;;;138.10;74.70;;;8.50;79.30;;;;;;4983111;28;20062;-81
2021/12/19 12:27:55;;;;;;;145.15;79.60;;;8.50;78.90;;;;;;4983374;28;20023;-81
2021/12/19 12:30:31;;;;;;;146.85;78.68;;;8.60;78.80;;;;;;4982186;28;20541;-81
2021/12/19 12:33:01;;;;;;;137.52;74.90;;;8.60;78.30;;;;;;4983036;28;20036;-81
2021/12/19 12:35:38;;;;;;;127.07;68.45;;;8.60;79.50;;;;;;4982719;28;20227;-81
2021/12/19 12:38:05;;;;;;;128.77;69.70;;;10.60;80.40;;;;;;4983980;28;20042;-81
2021/12/19 12:43:29;;;;;;;125.38;66.65;;;8.60;78.50;;;;;;5002921;28;20033;-81
2021/12/19 12:46:15;;;;;;;130.27;69.13;;;8.70;79.50;;;;;;5040909;28;20032;-81
2021/12/19 12:49:03;;;;;;;144.60;73.72;;;8.60;79.80;;;;;;5046523;28;20036;-81
2021/12/19 12:51:33;;;;;;;135.20;68.10;;;8.50;78.90;;;;;;5046348;28;20059;-81
2021/12/19 12:54:10;;;;;;;146.07;73.28;;;8.50;79.00;;;;;;5049668;28;20114;-81
2021/12/19 12:56:47;;;;;;;156.20;87.20;;;8.40;80.40;;;;;;5048424;28;20335;-80
2021/12/19 12:59:16;;;;;;;162.65;84.90;;;9.00;81.10;;;;;;5048162;28;20320;-81
2021/12/19 13:02:15;;;;;;;163.85;86.15;;;8.30;82.20;;;;;;5052098;28;20116;-81
2021/12/19 13:04:50;;;;;;;146.45;78.07;;;8.20;81.00;;;;;;5052917;28;20021;-80
2021/12/19 13:07:17;;;;;;;142.65;76.60;;;8.60;82.10;;;;;;5032033;28;20021;-80
2021/12/19 13:09:46;;;;;;;128.65;69.18;;;7.90;82.00;;;;;;5052373;28;20048;-82
2021/12/19 13:12:12;;;;;;;136.48;73.30;;;8.20;82.80;;;;;;5051838;28;20017;-80
2021/12/19 13:14:41;;;;;;;141.52;76.75;;;7.90;83.70;;;;;;5052681;28;20090;-80
2021/12/19 13:17:11;;;;;;;182.68;95.72;;;11.40;86.00;;;;;;5051587;28;20558;-80
2021/12/19 13:19:42;;;;;;;167.43;87.97;;;8.50;84.00;;;;;;5055117;28;20142;-79
2021/12/19 13:22:16;;;;;;;165.57;90.28;;;7.40;84.40;;;;;;5058203;28;20025;-81
2021/12/19 13:24:43;;;;;;;161.55;85.57;;;8.10;84.00;;;;;;5057276;28;20234;-80
2021/12/19 13:27:20;;;;;;;157.20;83.82;;;7.80;83.90;;;;;;5055974;28;20053;-80
2021/12/19 13:30:02;;;;;;;160.25;83.00;;;7.70;83.20;;;;;;5055570;28;20064;-80
2021/12/19 13:32:41;;;;;;;155.15;82.82;;;7.70;84.30;;;;;;5052115;28;20097;-80
2021/12/19 13:35:16;;;;;;;147.25;80.22;;;7.50;84.60;;;;;;5053080;28;20332;-80
2021/12/19 13:37:47;;;;;;;140.50;76.43;;;7.40;85.80;;;;;;5053033;28;20017;-81
2021/12/19 13:40:14;;;;;;;145.95;79.05;;;7.50;87.10;;;;;;5056571;28;20072;-79
2021/12/19 13:42:43;;;;;;;162.20;86.97;;;7.40;87.50;;;;;;5056701;28;20035;-82
2021/12/19 13:45:28;;;;;;;174.52;89.88;;;7.40;88.30;;;;;;5056988;28;20021;-81
2021/12/19 13:47:55;;;;;;;169.05;88.93;;;7.50;87.90;;;;;;5058304;28;20025;-80
2021/12/19 13:50:22;;;;;;;151.10;79.28;;;7.40;87.30;;;;;;5057406;28;20097;-80
2021/12/19 13:52:51;;;;;;;161.10;87.88;;;7.40;87.50;;;;;;5048107;28;20041;-81
2021/12/19 13:55:17;;;;;;;155.90;81.72;;;7.40;87.60;;;;;;5046601;28;20123;-80
2021/12/19 13:57:44;;;;;;;153.68;83.68;;;7.40;87.90;;;;;;5046633;28;20507;-81
2021/12/19 14:00:30;;;;;;;162.55;85.35;;;7.40;87.10;;;;;;5051224;28;20025;-81